Time;durP1;ratioP1;P1;durP2;ratioP2;P2;SDS_P1;SDS_P2;PMS_P1;PMS_P2;Temp;Humidity;BMP_temperature;BMP_pressure;BME280_temperature;BME280_humidity;BME280_pressure;Samples;Min_cycle;Max_cycle;Signal;HPM_P1;HPM_P2
2023/08/17 00:01:53;;;;;;;1999.90;999.90;;;;;;;19.95;100.00;95199.56;5003932;28;20203;-60
2023/08/17 00:04:19;;;;;;;1999.90;999.90;;;;;;;19.93;100.00;95190.94;5004170;28;20227;-60
2023/08/17 00:06:45;;;;;;;1999.90;999.90;;;;;;;19.85;100.00;95184.22;5003882;28;20227;-60
2023/08/17 00:09:12;;;;;;;1999.90;999.90;;;;;;;19.80;100.00;95171.75;5003848;28;20207;-60
2023/08/17 00:11:37;;;;;;;1999.90;999.90;;;;;;;19.78;100.00;95152.06;5003944;28;20192;-60
2023/08/17 00:14:03;;;;;;;1999.90;999.90;;;;;;;19.80;100.00;95135.72;5003854;28;20202;-60
2023/08/17 00:16:28;;;;;;;1999.90;999.90;;;;;;;19.83;100.00;95129.25;5003801;28;20229;-60
2023/08/17 00:18:54;;;;;;;1999.90;999.90;;;;;;;19.85;100.00;95112.13;5003971;28;20270;-60
2023/08/17 00:21:19;;;;;;;1999.90;999.90;;;;;;;19.83;100.00;95115.38;5006617;28;20180;-61
2023/08/17 00:23:45;;;;;;;1999.90;999.90;;;;;;;19.83;100.00;95120.91;5007945;28;20199;-60
2023/08/17 00:26:10;;;;;;;1999.90;999.90;;;;;;;19.82;100.00;95113.84;5007748;28;20473;-60
2023/08/17 00:28:35;;;;;;;1999.90;999.90;;;;;;;19.83;100.00;95109.06;5007270;28;20207;-60
2023/08/17 00:31:01;;;;;;;1999.90;999.90;;;;;;;19.80;100.00;95110.78;5007378;28;20203;-60
2023/08/17 00:33:27;;;;;;;1999.90;999.90;;;;;;;19.79;100.00;95097.38;5007464;28;20274;-60
2023/08/17 00:35:52;;;;;;;1999.90;999.90;;;;;;;19.75;100.00;95100.34;5006993;28;20195;-60
2023/08/17 00:38:17;;;;;;;1999.90;999.90;;;;;;;19.73;100.00;95107.59;5007193;28;20352;-60
2023/08/17 00:40:43;;;;;;;1999.90;999.90;;;;;;;19.69;100.00;95099.44;5006992;28;20377;-60
2023/08/17 00:43:08;;;;;;;1999.90;999.90;;;;;;;19.66;100.00;95094.06;5006840;28;20257;-60
2023/08/17 00:45:34;;;;;;;1999.90;999.90;;;;;;;19.64;100.00;95085.44;5007032;28;20485;-60
2023/08/17 00:48:00;;;;;;;1999.90;999.90;;;;;;;19.63;100.00;95079.13;5006967;28;20196;-60
2023/08/17 00:50:26;;;;;;;1999.90;999.90;;;;;;;19.62;100.00;95074.81;5006865;28;20188;-60
2023/08/17 00:52:53;;;;;;;1999.90;999.90;;;;;;;19.64;100.00;95080.69;5007033;28;20172;-60
2023/08/17 00:55:18;;;;;;;1999.90;999.90;;;;;;;19.64;100.00;95069.59;5007256;28;20258;-60
2023/08/17 00:57:44;;;;;;;1999.90;999.90;;;;;;;19.58;100.00;95060.38;5006883;28;20204;-60
2023/08/17 01:00:11;;;;;;;1999.90;999.90;;;;;;;19.57;100.00;95058.06;5006866;28;20370;-60
2023/08/17 01:02:37;;;;;;;1999.90;999.90;;;;;;;19.54;100.00;95045.94;5007195;28;20202;-60
2023/08/17 01:05:05;;;;;;;1999.90;999.90;;;;;;;19.52;100.00;95045.63;5006672;28;20195;-60
2023/08/17 01:07:31;;;;;;;1999.90;999.90;;;;;;;19.51;100.00;95049.63;5006565;28;20203;-60
2023/08/17 01:09:57;;;;;;;1999.90;999.90;;;;;;;19.52;100.00;95047.66;5006679;28;20239;-60
2023/08/17 01:12:37;;;;;;;1999.90;999.90;;;;;;;19.51;100.00;95055.19;5006609;28;20263;-60
2023/08/17 01:15:12;;;;;;;1999.90;999.90;;;;;;;19.49;100.00;95041.03;5006522;28;20196;-61
2023/08/17 01:18:10;;;;;;;1999.90;999.90;;;;;;;19.44;100.00;95036.13;5006278;28;20388;-60
2023/08/17 01:20:36;;;;;;;1999.90;999.90;;;;;;;19.41;100.00;95031.53;5001070;28;20603;-60
2023/08/17 01:23:06;;;;;;;1999.90;999.90;;;;;;;19.36;100.00;95032.16;5006666;28;20223;-60
2023/08/17 01:25:36;;;;;;;1999.90;999.90;;;;;;;19.34;100.00;95031.88;5006301;28;20196;-60
2023/08/17 01:28:01;;;;;;;1999.90;999.90;;;;;;;19.32;100.00;95026.03;5006233;28;20191;-60
2023/08/17 01:30:27;;;;;;;1999.90;999.90;;;;;;;19.22;100.00;95028.06;5006169;28;20504;-60
2023/08/17 01:33:34;;;;;;;1999.90;999.90;;;;;;;19.11;100.00;95013.94;5005633;28;20211;-61
2023/08/17 01:36:26;;;;;;;1999.90;999.90;;;;;;;19.04;100.00;94992.13;5005759;28;20200;-60
2023/08/17 01:38:55;;;;;;;1999.90;999.90;;;;;;;19.04;100.00;94992.13;5005966;28;20199;-60
2023/08/17 01:41:23;;;;;;;1999.90;999.90;;;;;;;18.91;100.00;94919.59;5005962;28;20246;-61
2023/08/17 01:43:49;;;;;;;1999.90;999.90;;;;;;;18.86;100.00;94895.34;5005982;28;20203;-61
2023/08/17 01:46:16;;;;;;;1999.90;999.90;;;;;;;18.87;100.00;94863.66;5006142;28;20234;-60
2023/08/17 01:48:42;;;;;;;1999.90;999.90;;;;;;;18.86;100.00;94833.66;5006240;28;20192;-60
2023/08/17 01:51:10;;;;;;;1999.90;999.90;;;;;;;18.83;100.00;94812.50;5006018;28;20226;-60
2023/08/17 01:53:35;;;;;;;1999.90;999.90;;;;;;;18.75;100.00;94801.00;5005417;28;20248;-61
2023/08/17 01:56:00;;;;;;;1999.90;999.90;;;;;;;18.76;100.00;94779.66;5006465;28;20204;-60
2023/08/17 01:58:26;;;;;;;1999.90;999.90;;;;;;;18.77;100.00;94761.78;5005513;28;20207;-60
2023/08/17 02:00:51;;;;;;;1999.90;999.90;;;;;;;18.81;100.00;94754.09;5005886;28;20496;-60
2023/08/17 02:03:16;;;;;;;1999.90;999.90;;;;;;;18.79;100.00;94746.25;5005658;28;20199;-60
2023/08/17 02:05:46;;;;;;;1999.90;999.90;;;;;;;18.75;100.00;94736.59;5005751;28;20200;-61
2023/08/17 02:08:11;;;;;;;1999.90;999.90;;;;;;;18.73;100.00;94720.47;5005817;28;20199;-60
2023/08/17 02:10:37;;;;;;;1999.90;999.90;;;;;;;18.63;100.00;94715.47;5005318;28;20234;-60
2023/08/17 02:13:02;;;;;;;1999.90;999.90;;;;;;;18.64;100.00;94694.88;5005261;28;20333;-61
2023/08/17 02:15:27;;;;;;;1999.90;999.90;;;;;;;18.66;100.00;94687.66;5005352;28;20192;-60
2023/08/17 02:17:53;;;;;;;1999.90;999.90;;;;;;;18.69;100.00;94680.41;5005594;28;20219;-60
2023/08/17 02:20:18;;;;;;;1999.90;999.90;;;;;;;18.70;100.00;94676.38;5005479;28;20192;-60
2023/08/17 02:22:44;;;;;;;1999.90;999.90;;;;;;;18.72;100.00;94668.41;5005351;28;20187;-60
2023/08/17 02:25:09;;;;;;;1999.90;999.90;;;;;;;18.71;100.00;94673.16;5005344;28;20164;-60
2023/08/17 02:27:35;;;;;;;1999.90;999.90;;;;;;;18.69;100.00;94675.63;5005539;28;20231;-61
2023/08/17 02:30:00;;;;;;;1999.90;999.90;;;;;;;18.65;100.00;94683.34;5005029;28;20384;-61
2023/08/17 02:32:25;;;;;;;1999.90;999.90;;;;;;;18.62;100.00;94691.81;5004842;28;20203;-61
2023/08/17 02:34:51;;;;;;;1999.90;999.90;;;;;;;18.55;100.00;94689.41;5004898;28;20199;-60
2023/08/17 02:37:16;;;;;;;1999.90;999.90;;;;;;;18.54;100.00;94685.13;5004732;28;20208;-61
2023/08/17 02:39:41;;;;;;;1999.90;999.90;;;;;;;18.52;100.00;94684.81;5005024;28;20192;-61
2023/08/17 02:42:07;;;;;;;1999.90;999.90;;;;;;;18.53;100.00;94672.50;5004736;28;20268;-60
2023/08/17 02:44:32;;;;;;;1999.90;999.90;;;;;;;18.55;100.00;94681.88;5004086;28;20199;-60
2023/08/17 02:46:57;;;;;;;1999.90;999.90;;;;;;;18.52;100.00;94691.13;5004764;28;20278;-60
2023/08/17 02:49:23;;;;;;;1999.90;999.90;;;;;;;18.48;100.00;94692.53;5004984;28;20210;-61
2023/08/17 02:51:48;;;;;;;1999.90;999.90;;;;;;;18.49;100.00;94688.53;5004675;28;20214;-60
2023/08/17 02:54:13;;;;;;;1999.90;999.90;;;;;;;18.47;100.00;94691.00;5004697;28;20191;-60
2023/08/17 02:56:39;;;;;;;1999.90;999.90;;;;;;;18.48;100.00;94698.06;5004885;28;20199;-60
2023/08/17 02:59:04;;;;;;;1999.90;999.90;;;;;;;18.47;100.00;94711.13;5004947;28;20204;-60
2023/08/17 03:01:31;;;;;;;1999.90;999.90;;;;;;;18.50;100.00;94728.78;5004909;28;20195;-60
2023/08/17 03:03:56;;;;;;;1999.90;999.90;;;;;;;18.49;100.00;94732.78;5004791;28;20222;-60
2023/08/17 03:06:21;;;;;;;1999.90;999.90;;;;;;;18.43;100.00;94743.72;5004324;28;20409;-60
2023/08/17 03:08:47;;;;;;;1999.90;999.90;;;;;;;18.44;100.00;94752.78;5004576;28;20271;-60
2023/08/17 03:11:12;;;;;;;1999.90;999.90;;;;;;;18.40;100.00;94746.66;5004650;28;20202;-60
2023/08/17 03:13:37;;;;;;;1999.90;999.90;;;;;;;18.41;100.00;94756.47;5004592;28;20242;-60
2023/08/17 03:16:03;;;;;;;1999.90;999.90;;;;;;;18.41;100.00;94759.25;5004358;28;20196;-60
2023/08/17 03:18:28;;;;;;;1999.90;999.90;;;;;;;18.43;100.00;94756.78;5004123;28;20220;-60
2023/08/17 03:20:53;;;;;;;1999.90;999.90;;;;;;;18.44;100.00;94753.56;5004368;28;20195;-61
2023/08/17 03:23:19;;;;;;;1999.90;999.90;;;;;;;18.44;100.00;94767.38;5004261;28;20195;-60
2023/08/17 03:25:45;;;;;;;1999.90;999.90;;;;;;;18.47;100.00;94779.50;5004688;28;20283;-60
2023/08/17 03:28:11;;;;;;;1999.90;999.90;;;;;;;18.47;100.00;94793.34;5004665;28;20276;-60
2023/08/17 03:30:36;;;;;;;1999.90;999.90;;;;;;;18.46;100.00;94795.31;5004539;28;20195;-60
2023/08/17 03:33:02;;;;;;;1999.90;999.90;;;;;;;18.45;100.00;94793.78;5004493;28;20388;-61
2023/08/17 03:35:27;;;;;;;1999.90;999.90;;;;;;;18.44;100.00;94810.84;5004193;28;20200;-60
2023/08/17 03:37:52;;;;;;;1999.90;999.90;;;;;;;18.43;100.00;94823.16;5003986;28;20290;-60
2023/08/17 03:40:18;;;;;;;1999.90;999.90;;;;;;;18.39;100.00;94828.09;5003984;28;20192;-61
2023/08/17 03:42:43;;;;;;;1999.90;999.90;;;;;;;18.37;100.00;94825.00;5004139;28;20199;-61
2023/08/17 03:45:08;;;;;;;1999.90;999.90;;;;;;;18.36;100.00;94829.03;5004191;28;20199;-61
2023/08/17 03:47:34;;;;;;;1999.90;999.90;;;;;;;18.35;100.00;94833.78;5004784;28;20242;-61
2023/08/17 03:49:59;;;;;;;1999.90;999.90;;;;;;;18.34;100.00;94831.44;5004106;28;20379;-60
2023/08/17 03:52:24;;;;;;;1999.90;999.90;;;;;;;18.31;100.00;94827.63;5004286;28;20188;-61
2023/08/17 03:54:50;;;;;;;1999.90;999.90;;;;;;;18.31;100.00;94821.31;5004260;28;20176;-61
2023/08/17 03:57:15;;;;;;;1999.90;999.90;;;;;;;18.30;100.00;94825.31;5007962;28;20271;-61
2023/08/17 03:59:41;;;;;;;1999.90;999.90;;;;;;;18.26;100.00;94830.25;5008492;28;20230;-60
2023/08/17 04:02:06;;;;;;;1999.90;999.90;;;;;;;18.21;100.00;94822.59;5008194;28;20192;-60
2023/08/17 04:04:32;;;;;;;1999.90;999.90;;;;;;;18.14;100.00;94826.44;5007925;28;20267;-60
2023/08/17 04:06:57;;;;;;;1999.90;999.90;;;;;;;18.09;100.00;94815.25;5007987;28;20196;-60
2023/08/17 04:09:22;;;;;;;1999.90;999.90;;;;;;;18.07;100.00;94803.91;5008130;28;20272;-60
2023/08/17 04:11:48;;;;;;;1999.90;999.90;;;;;;;18.06;100.00;94794.09;5007615;28;20199;-60
2023/08/17 04:14:14;;;;;;;1999.90;999.90;;;;;;;18.06;100.00;94780.28;5007413;28;20478;-60
2023/08/17 04:16:39;;;;;;;1999.90;999.90;;;;;;;18.08;100.00;94769.50;5007597;28;20224;-60
2023/08/17 04:19:04;;;;;;;1999.90;999.90;;;;;;;18.08;100.00;94764.75;5007898;28;20195;-60
2023/08/17 04:21:30;;;;;;;1999.90;999.90;;;;;;;18.11;100.00;94757.53;5008004;28;20214;-60
2023/08/17 04:23:55;;;;;;;1999.90;999.90;;;;;;;18.17;100.00;94752.91;5007265;28;20192;-61
2023/08/17 04:26:21;;;;;;;1999.90;999.90;;;;;;;18.21;100.00;94759.03;5007393;28;20187;-60
2023/08/17 04:28:46;;;;;;;1999.90;999.90;;;;;;;18.25;100.00;94762.38;5007143;28;20214;-60
2023/08/17 04:31:12;;;;;;;1999.90;999.90;;;;;;;18.31;100.00;94766.00;5007291;28;20448;-60
2023/08/17 04:33:37;;;;;;;1999.90;999.90;;;;;;;18.43;100.00;94767.84;5007604;28;20202;-60
2023/08/17 04:36:03;;;;;;;1999.90;999.90;;;;;;;18.53;100.00;94777.59;5007540;28;20221;-60
2023/08/17 04:38:28;;;;;;;1999.90;999.90;;;;;;;18.68;100.00;94789.50;5007610;28;20283;-60
2023/08/17 04:40:53;;;;;;;1999.90;999.90;;;;;;;18.85;100.00;94821.09;5007483;28;20481;-60
2023/08/17 04:43:19;;;;;;;1999.90;999.90;;;;;;;19.02;100.00;94877.56;5006703;28;20199;-61
2023/08/17 04:45:47;;;;;;;1999.90;999.90;;;;;;;19.21;100.00;94937.13;5007203;28;20196;-60
2023/08/17 04:48:13;;;;;;;1999.90;999.90;;;;;;;19.44;100.00;94983.50;5006827;28;20222;-60
2023/08/17 04:50:39;;;;;;;1999.90;999.90;;;;;;;19.53;100.00;95036.84;5007393;28;20222;-60
2023/08/17 04:53:04;;;;;;;1999.90;999.90;;;;;;;19.72;100.00;95090.19;5006716;28;20195;-60
2023/08/17 04:55:29;;;;;;;1999.90;999.90;;;;;;;19.91;100.00;95124.88;5006790;28;20192;-60
2023/08/17 04:57:55;;;;;;;1999.90;999.90;;;;;;;20.24;100.00;95158.94;5006648;28;20212;-60
2023/08/17 05:00:25;;;;;;;1999.90;999.90;;;;;;;20.67;100.00;95202.75;5006499;28;20196;-60
2023/08/17 05:02:51;;;;;;;1999.90;999.90;;;;;;;21.10;100.00;95266.03;5007166;28;20204;-60
2023/08/17 05:05:16;;;;;;;1999.90;999.90;;;;;;;21.55;100.00;95307.31;5006982;28;20191;-60
2023/08/17 05:07:42;;;;;;;1999.90;999.90;;;;;;;21.98;100.00;95345.59;5005844;28;20204;-60
2023/08/17 05:10:07;;;;;;;1999.90;999.90;;;;;;;22.38;100.00;95378.41;5006690;28;20196;-60
2023/08/17 05:12:33;;;;;;;1999.90;999.90;;;;;;;22.61;100.00;95407.44;5006515;28;20263;-60
2023/08/17 05:14:58;;;;;;;1999.90;999.90;;;;;;;23.03;100.00;95427.34;5006575;28;20196;-60
2023/08/17 05:17:23;;;;;;;1999.90;999.90;;;;;;;23.37;100.00;95432.19;5006409;28;20211;-61
2023/08/17 05:19:49;;;;;;;1999.90;999.90;;;;;;;23.81;100.00;95433.56;5006283;28;20233;-60
2023/08/17 05:22:15;;;;;;;1999.90;999.90;;;;;;;24.04;100.00;95440.97;5006611;28;20204;-60
2023/08/17 05:24:40;;;;;;;1999.90;999.90;;;;;;;24.16;100.00;95455.84;5006695;28;20188;-60
2023/08/17 05:27:05;;;;;;;1999.90;999.90;;;;;;;24.34;100.00;95458.34;5006599;28;20257;-60
2023/08/17 05:29:34;;;;;;;1999.90;999.90;;;;;;;24.63;100.00;95455.38;5006065;28;20196;-61
2023/08/17 05:31:59;;;;;;;1999.90;999.90;;;;;;;24.78;100.00;95462.38;5006600;28;20199;-60
2023/08/17 05:34:25;;;;;;;1999.90;999.90;;;;;;;25.16;100.00;95458.34;5006205;28;20215;-61
2023/08/17 05:36:50;;;;;;;1999.90;999.90;;;;;;;25.55;100.00;95459.44;5006183;28;20234;-60
2023/08/17 05:39:15;;;;;;;1999.90;999.90;;;;;;;25.61;100.00;95460.25;5006331;28;20191;-60
2023/08/17 05:41:41;;;;;;;1999.90;999.90;;;;;;;25.80;100.00;95461.38;5005957;28;20219;-60
2023/08/17 05:44:06;;;;;;;1999.90;999.90;;;;;;;25.71;100.00;95458.00;5005821;28;20216;-60
2023/08/17 05:46:33;;;;;;;1999.90;999.90;;;;;;;25.76;100.00;95465.66;5006100;28;20192;-60
2023/08/17 05:48:59;;;;;;;1999.90;999.90;;;;;;;26.39;100.00;95459.34;5005815;28;20202;-60
2023/08/17 05:51:24;;;;;;;1999.90;999.90;;;;;;;26.75;100.00;95461.25;5005877;28;20191;-60
2023/08/17 05:53:50;;;;;;;1999.90;999.90;;;;;;;26.78;100.00;95465.84;5006216;28;20315;-60
2023/08/17 05:56:15;;;;;;;1999.90;999.90;;;;;;;27.21;100.00;95455.94;5005604;28;20195;-60
2023/08/17 05:58:40;;;;;;;1999.90;999.90;;;;;;;27.35;100.00;95468.94;5005809;28;20204;-60
2023/08/17 06:01:07;;;;;;;1999.90;999.90;;;;;;;27.87;100.00;95467.09;5006115;28;20191;-60
2023/08/17 06:03:33;;;;;;;1999.90;999.90;;;;;;;28.41;100.00;95469.47;5005211;28;20168;-60
2023/08/17 06:05:59;;;;;;;1999.90;999.90;;;;;;;28.89;100.00;95462.06;5005870;28;20192;-59
2023/08/17 06:08:24;;;;;;;1999.90;999.90;;;;;;;28.83;100.00;95466.94;5005920;28;20195;-61
2023/08/17 06:10:49;;;;;;;1999.90;999.90;;;;;;;28.96;100.00;95467.13;5005975;28;20200;-60
2023/08/17 06:13:15;;;;;;;1999.90;999.90;;;;;;;29.32;100.00;95465.09;5005787;28;20193;-60
2023/08/17 06:15:40;;;;;;;1999.90;999.90;;;;;;;29.64;100.00;95463.31;5005293;28;20203;-60
2023/08/17 06:18:06;;;;;;;1999.90;999.90;;;;;;;30.29;100.00;95461.81;5004810;28;20207;-60
2023/08/17 06:20:31;;;;;;;1999.90;999.90;;;;;;;30.66;100.00;95461.06;5005546;28;20225;-60
2023/08/17 06:22:56;;;;;;;1999.90;999.90;;;;;;;30.56;100.00;95459.94;5005069;28;20190;-60
2023/08/17 06:25:22;;;;;;;1999.90;999.90;;;;;;;31.04;100.00;95465.44;5005235;28;20188;-59
2023/08/17 06:27:49;;;;;;;1999.90;999.90;;;;;;;30.58;100.00;95460.94;5004996;28;20255;-59
2023/08/17 06:30:14;;;;;;;1999.90;999.90;;;;;;;30.79;100.00;95458.38;5005316;28;20270;-64
2023/08/17 06:32:39;;;;;;;1999.90;999.90;;;;;;;31.69;100.00;95457.19;5004831;28;20183;-60
2023/08/17 06:35:06;;;;;;;1999.90;999.90;;;;;;;32.22;100.00;95461.59;5005352;28;20195;-61
2023/08/17 06:37:31;;;;;;;1999.90;999.90;;;;;;;32.64;100.00;95460.50;5004736;28;20271;-59
2023/08/17 06:39:56;;;;;;;1999.90;999.90;;;;;;;33.26;100.00;95450.09;5004777;28;20200;-60
2023/08/17 06:42:22;;;;;;;1999.90;999.90;;;;;;;32.95;100.00;95453.91;5005034;28;20188;-60
2023/08/17 06:44:47;;;;;;;1999.90;999.90;;;;;;;33.37;100.00;95466.09;5004737;28;20191;-60
2023/08/17 06:47:12;;;;;;;1999.90;999.90;;;;;;;33.79;100.00;95471.19;5004847;28;20314;-60
2023/08/17 06:49:38;;;;;;;1999.90;999.90;;;;;;;34.10;100.00;95462.91;5004655;28;20191;-57
2023/08/17 06:52:03;;;;;;;1999.90;999.90;;;;;;;33.70;100.00;95459.56;5004629;28;20192;-57
2023/08/17 06:54:28;;;;;;;1999.90;999.90;;;;;;;35.03;100.00;95465.16;5004616;28;20187;-57
2023/08/17 06:56:54;;;;;;;1999.90;999.90;;;;;;;34.64;100.00;95459.84;5004323;28;20191;-57
2023/08/17 06:59:19;;;;;;;1999.90;999.90;;;;;;;34.76;100.00;95466.72;5004647;28;20192;-57
2023/08/17 07:01:44;;;;;;;1999.90;999.90;;;;;;;34.49;100.00;95460.56;5004698;28;20187;-59
2023/08/17 07:04:10;;;;;;;1999.90;999.90;;;;;;;34.73;100.00;95462.19;5004223;28;20249;-57
2023/08/17 07:06:35;;;;;;;1999.90;999.90;;;;;;;34.22;100.00;95469.81;5004853;28;20204;-57
2023/08/17 07:09:00;;;;;;;1999.90;999.90;;;;;;;34.17;100.00;95462.22;5004219;28;20195;-57
2023/08/17 07:11:26;;;;;;;1999.90;999.90;;;;;;;34.27;100.00;95466.06;5004313;28;20317;-57
2023/08/17 07:13:51;;;;;;;1999.90;999.90;;;;;;;34.74;100.00;95463.69;5004545;28;20246;-57
2023/08/17 07:16:16;;;;;;;1999.90;999.90;;;;;;;34.33;100.00;95467.44;5003973;28;20223;-57
2023/08/17 07:18:42;;;;;;;1999.90;999.90;;;;;;;34.26;100.00;95470.22;5004289;28;20218;-57
2023/08/17 07:21:07;;;;;;;1999.90;999.90;;;;;;;35.19;100.00;95475.22;5004392;28;20199;-57
2023/08/17 07:23:32;;;;;;;1999.90;999.90;;;;;;;35.82;96.31;95474.22;5004086;28;20223;-57
2023/08/17 07:25:58;;;;;;;1999.90;999.90;;;;;;;35.40;96.33;95473.03;5004021;28;20203;-57
2023/08/17 07:28:23;;;;;;;1999.90;999.90;;;;;;;35.51;94.84;95473.41;5003870;28;20192;-57
2023/08/17 07:30:48;;;;;;;1999.90;999.90;;;;;;;36.03;95.00;95469.09;5008277;28;20196;-57
2023/08/17 07:33:14;;;;;;;1999.90;999.90;;;;;;;36.30;91.34;95473.06;5010873;28;20195;-57
2023/08/17 07:35:39;;;;;;;1999.90;999.90;;;;;;;36.79;85.84;95473.34;5010793;28;20202;-58
2023/08/17 07:38:05;;;;;;;1999.90;999.90;;;;;;;36.88;86.54;95474.84;5010862;28;20242;-57
2023/08/17 07:40:30;;;;;;;1999.90;999.90;;;;;;;37.61;79.08;95477.88;5010883;28;20246;-57
2023/08/17 07:42:56;;;;;;;1999.90;999.90;;;;;;;37.51;76.59;95479.84;5010762;28;20203;-58
2023/08/17 07:45:21;;;;;;;1999.90;999.90;;;;;;;37.42;78.90;95483.31;5010522;28;20238;-57
2023/08/17 07:47:46;;;;;;;1999.90;999.90;;;;;;;37.32;82.31;95473.88;5010608;28;20206;-58
2023/08/17 07:50:12;;;;;;;1999.90;999.90;;;;;;;38.52;73.34;95475.81;5010582;28;20203;-57
2023/08/17 07:52:37;;;;;;;1999.90;999.90;;;;;;;39.02;69.77;95485.75;5010676;28;20238;-57
2023/08/17 07:55:03;;;;;;;1999.90;999.90;;;;;;;38.32;69.49;95476.94;5010496;28;20203;-57
2023/08/17 07:57:28;;;;;;;1999.90;999.90;;;;;;;38.08;73.91;95474.88;5010270;28;20212;-57
2023/08/17 07:59:54;;;;;;;1999.90;999.90;;;;;;;37.92;76.29;95472.72;5010944;28;20201;-57
2023/08/17 08:02:19;;;;;;;1999.90;999.90;;;;;;;38.05;79.14;95466.72;5010867;28;20191;-57
2023/08/17 08:04:44;;;;;;;1999.90;999.90;;;;;;;38.35;73.93;95461.47;5010552;28;20196;-57
2023/08/17 08:07:10;;;;;;;1999.90;999.90;;;;;;;37.78;75.22;95463.69;5009792;28;20201;-58
2023/08/17 08:09:35;;;;;;;1999.90;999.90;;;;;;;38.72;72.23;95460.34;5010758;28;20200;-57
2023/08/17 08:12:01;;;;;;;1999.90;999.90;;;;;;;38.72;73.28;95474.66;5010426;28;20200;-58
2023/08/17 08:14:27;;;;;;;1999.90;999.90;;;;;;;37.83;76.75;95474.13;5010608;28;20206;-58
2023/08/17 08:16:52;;;;;;;1999.90;999.90;;;;;;;39.04;70.77;95465.88;5010402;28;20199;-57
2023/08/17 08:19:17;;;;;;;1999.90;999.90;;;;;;;39.17;68.67;95468.38;5010630;28;20192;-57
2023/08/17 08:21:43;;;;;;;1999.90;999.90;;;;;;;37.80;75.25;95463.84;5010424;28;20223;-57
2023/08/17 08:24:08;;;;;;;1999.90;999.90;;;;;;;37.94;79.02;95450.81;5010067;28;20195;-58
2023/08/17 08:26:33;;;;;;;1999.90;999.90;;;;;;;38.26;79.25;95453.59;5010136;28;20267;-58
2023/08/17 08:29:00;;;;;;;1999.90;999.90;;;;;;;39.23;69.31;95457.44;5010528;28;20195;-58
2023/08/17 08:31:25;;;;;;;1999.90;999.90;;;;;;;39.54;65.60;95460.63;5010286;28;20242;-58
2023/08/17 08:33:51;;;;;;;1999.90;999.90;;;;;;;39.17;67.26;95456.94;5009963;28;20191;-59
2023/08/17 08:36:17;;;;;;;1999.90;999.90;;;;;;;39.19;69.60;95456.34;5010220;28;20203;-58
2023/08/17 08:38:42;;;;;;;1999.90;999.90;;;;;;;38.65;72.92;95451.88;5009949;28;20211;-58
2023/08/17 08:41:08;;;;;;;1999.90;999.90;;;;;;;39.14;71.88;95452.41;5009354;28;20208;-57
2023/08/17 08:43:33;;;;;;;1999.90;999.90;;;;;;;38.40;73.80;95465.44;5007038;28;20207;-58
2023/08/17 08:45:59;;;;;;;1999.90;999.90;;;;;;;37.59;78.95;95457.72;5006662;28;20275;-57
2023/08/17 08:48:27;;;;;;;1999.90;999.90;;;;;;;37.47;80.92;95456.66;5007030;28;20203;-57
2023/08/17 08:50:54;;;;;;;1999.90;999.90;;;;;;;37.24;79.52;95461.03;5007061;28;20203;-58
2023/08/17 08:53:27;;;;;;;1999.90;999.90;;;;;;;35.97;89.95;95451.47;5006810;28;20191;-59
2023/08/17 08:55:57;;;;;;;1999.90;999.90;;;;;;;35.53;91.83;95453.72;5006790;28;20196;-58
2023/08/17 08:58:25;;;;;;;1999.90;999.90;;;;;;;36.96;88.85;95450.66;5006691;28;20296;-58
2023/08/17 09:00:50;;;;;;;1999.90;999.90;;;;;;;37.69;78.46;95447.22;5007061;28;20216;-57
2023/08/17 09:03:20;;;;;;;1999.90;999.90;;;;;;;37.38;80.56;95454.44;5006636;28;20195;-57
2023/08/17 09:05:49;;;;;;;1999.90;999.90;;;;;;;38.84;73.14;95452.78;5006454;28;20172;-58
2023/08/17 09:08:18;;;;;;;1999.90;999.90;;;;;;;38.44;73.16;95452.25;5006903;28;20195;-58
2023/08/17 09:10:44;;;;;;;1999.90;999.90;;;;;;;37.34;75.83;95442.69;5006848;28;20219;-58
2023/08/17 09:13:09;;;;;;;1999.90;999.90;;;;;;;37.35;80.72;95444.19;5006645;28;20199;-58
2023/08/17 09:15:35;;;;;;;1999.90;999.90;;;;;;;37.34;80.79;95439.84;5006455;28;20243;-57
2023/08/17 09:18:00;;;;;;;1999.90;999.90;;;;;;;37.67;79.57;95435.63;5006172;28;20215;-58
2023/08/17 09:20:46;;;;;;;1999.90;999.90;;;;;;;38.27;70.29;95443.66;5006559;28;20187;-57
2023/08/17 09:23:17;;;;;;;1999.90;999.90;;;;;;;38.08;71.13;95440.63;5006628;28;20249;-58
2023/08/17 09:25:44;;;;;;;1999.90;999.90;;;;;;;37.06;78.04;95440.16;5006122;28;20246;-58
2023/08/17 09:28:11;;;;;;;1999.90;999.90;;;;;;;37.32;75.34;95433.22;5006274;28;20192;-59
2023/08/17 09:30:51;;;;;;;1999.90;999.90;;;;;;;35.87;81.47;95424.94;5006059;28;20203;-57
2023/08/17 09:33:16;;;;;;;1999.90;999.90;;;;;;;37.23;76.44;95431.75;5006379;28;20195;-58
2023/08/17 09:35:42;;;;;;;1999.90;999.90;;;;;;;37.42;70.31;95437.69;5006683;28;20210;-58
2023/08/17 09:38:08;;;;;;;1999.90;999.90;;;;;;;36.76;77.44;95425.31;5006058;28;20207;-59
2023/08/17 09:40:33;;;;;;;1999.90;999.90;;;;;;;36.36;78.53;95430.94;5005919;28;20195;-58
2023/08/17 09:42:58;;;;;;;1999.90;999.90;;;;;;;36.51;78.53;95431.66;5005668;28;20196;-58
2023/08/17 09:45:25;;;;;;;1999.90;999.90;;;;;;;37.24;72.78;95426.81;5005990;28;20192;-57
2023/08/17 09:47:50;;;;;;;1999.90;999.90;;;;;;;36.76;74.15;95417.53;5006026;28;20215;-58
2023/08/17 09:50:16;;;;;;;1999.90;999.90;;;;;;;36.30;82.12;95421.81;5005889;28;20183;-57
2023/08/17 09:52:41;;;;;;;1999.90;999.90;;;;;;;36.25;78.90;95420.72;5005414;28;20215;-58
2023/08/17 09:55:07;;;;;;;1999.90;999.90;;;;;;;37.08;74.71;95417.56;5005983;28;20218;-58
2023/08/17 09:57:34;;;;;;;1999.90;999.90;;;;;;;37.07;74.63;95426.69;5005995;28;20218;-58
2023/08/17 09:59:59;;;;;;;1999.90;999.90;;;;;;;37.04;72.14;95428.59;5005726;28;20198;-58
2023/08/17 10:02:27;;;;;;;1999.90;999.90;;;;;;;36.20;73.18;95423.75;5005581;28;20224;-58
2023/08/17 10:04:55;;;;;;;1999.90;999.90;;;;;;;35.85;76.40;95421.88;5005404;28;20200;-57
2023/08/17 10:07:23;;;;;;;1999.90;999.90;;;;;;;35.74;79.30;95425.09;5005292;28;20196;-58
2023/08/17 10:10:06;;;;;;;1999.90;999.90;;;;;;;34.89;84.45;95413.44;5005445;28;20270;-57
2023/08/17 10:12:37;;;;;;;1999.90;999.90;;;;;;;35.15;84.65;95418.00;5005492;28;20184;-60
2023/08/17 10:15:07;;;;;;;1999.90;999.90;;;;;;;35.23;86.99;95413.09;5005230;28;20199;-58
2023/08/17 10:17:56;;;;;;;1999.90;999.90;;;;;;;35.83;80.93;95416.78;5005396;28;20266;-58
2023/08/17 10:20:23;;;;;;;1999.90;999.90;;;;;;;36.33;72.93;95410.06;5004927;28;20303;-58
2023/08/17 10:23:13;;;;;;;1999.90;999.90;;;;;;;36.26;72.52;95412.94;5005500;28;20242;-58
2023/08/17 10:25:40;;;;;;;1999.90;999.90;;;;;;;36.52;71.20;95409.59;5005746;28;20203;-58
2023/08/17 10:28:06;;;;;;;1999.90;999.90;;;;;;;37.18;65.58;95412.78;5004990;28;20200;-58
2023/08/17 10:30:32;;;;;;;1999.90;999.90;;;;;;;37.18;67.46;95412.78;5005151;28;20202;-58
2023/08/17 10:32:58;;;;;;;1999.90;999.90;;;;;;;36.98;62.38;95413.81;5005004;28;20196;-60
2023/08/17 10:35:23;;;;;;;1999.90;999.90;;;;;;;36.75;64.47;95410.31;5004989;28;20209;-58
2023/08/17 10:37:49;;;;;;;1999.90;999.90;;;;;;;35.49;72.72;95407.09;5004993;28;20218;-58
2023/08/17 10:40:14;;;;;;;1999.90;999.90;;;;;;;36.05;72.91;95409.56;5005208;28;20172;-58
2023/08/17 10:42:40;;;;;;;1999.90;999.90;;;;;;;36.90;70.69;95398.84;5005267;28;20235;-58
2023/08/17 10:45:25;;;;;;;1999.90;999.90;;;;;;;37.43;63.50;95409.94;5005147;28;20204;-59
2023/08/17 10:48:00;;;;;;;1999.90;999.90;;;;;;;36.41;65.47;95412.88;5004745;28;20275;-58